Time;durP1;ratioP1;P1;durP2;ratioP2;P2;SDS_P1;SDS_P2;PMS_P1;PMS_P2;Temp;Humidity;BMP_temperature;BMP_pressure;BME280_temperature;BME280_humidity;BME280_pressure;Samples;Min_cycle;Max_cycle;Signal;HPM_P1;HPM_P2
2023/11/12 00:00:12;;;;;;;32.60;23.83;;;5.10;99.90;;;;;;5092656;28;20740;-71
2023/11/12 00:02:38;;;;;;;24.30;18.80;;;5.10;99.90;;;;;;5075558;28;20571;-73
2023/11/12 00:05:04;;;;;;;26.55;18.33;;;5.10;99.90;;;;;;5093671;28;20729;-71
2023/11/12 00:07:30;;;;;;;23.67;18.33;;;5.10;99.90;;;;;;5092220;28;20394;-71
2023/11/12 00:09:55;;;;;;;24.07;18.40;;;6.00;99.90;;;;;;5092641;28;20432;-72
2023/11/12 00:12:22;;;;;;;25.43;19.50;;;5.00;99.90;;;;;;5094049;28;20382;-73
2023/11/12 00:14:48;;;;;;;28.27;19.50;;;5.00;99.90;;;;;;5074319;28;20412;-72
2023/11/12 00:17:15;;;;;;;28.53;19.90;;;5.00;99.90;;;;;;5094001;28;20366;-72
2023/11/12 00:19:41;;;;;;;25.85;19.80;;;4.90;99.90;;;;;;5073757;28;20436;-72
2023/11/12 00:22:07;;;;;;;25.00;19.80;;;4.90;99.90;;;;;;5094169;28;20378;-73
2023/11/12 00:24:33;;;;;;;27.08;19.15;;;4.90;99.90;;;;;;5097543;28;20887;-72
2023/11/12 00:26:58;;;;;;;25.83;19.92;;;4.80;99.90;;;;;;5097660;28;20390;-72
2023/11/12 00:29:24;;;;;;;25.83;19.17;;;4.90;99.90;;;;;;5101705;28;20457;-72
2023/11/12 00:31:50;;;;;;;26.47;19.70;;;4.90;99.90;;;;;;5101714;28;20388;-72
2023/11/12 00:34:15;;;;;;;30.60;21.53;;;4.90;99.90;;;;;;5101387;28;20416;-71
2023/11/12 00:36:42;;;;;;;24.98;19.10;;;4.80;99.90;;;;;;5102373;28;20374;-72
2023/11/12 00:39:11;;;;;;;26.42;19.58;;;4.90;99.90;;;;;;5102776;28;20386;-72
2023/11/12 00:41:38;;;;;;;27.60;20.45;;;4.80;99.90;;;;;;5103859;28;20437;-71
2023/11/12 00:44:05;;;;;;;29.20;20.40;;;4.80;99.90;;;;;;5106063;28;20378;-71
2023/11/12 00:46:30;;;;;;;27.42;18.95;;;4.80;99.90;;;;;;5103845;28;20382;-72
2023/11/12 00:48:57;;;;;;;28.33;21.47;;;4.80;99.90;;;;;;5104226;28;20443;-71
2023/11/12 00:51:24;;;;;;;29.50;21.50;;;4.80;99.90;;;;;;5104740;28;20393;-72
2023/11/12 00:53:50;;;;;;;25.48;19.60;;;4.80;99.90;;;;;;5105223;28;20430;-71
2023/11/12 00:56:15;;;;;;;28.20;20.27;;;4.80;99.90;;;;;;5104805;28;20382;-71
2023/11/12 00:58:42;;;;;;;30.40;20.03;;;4.80;99.90;;;;;;5104246;28;20374;-71
2023/11/12 01:01:08;;;;;;;28.80;19.98;;;4.80;99.90;;;;;;5086963;28;20399;-71
2023/11/12 01:03:34;;;;;;;34.90;20.33;;;4.70;99.90;;;;;;5104383;28;20453;-71
2023/11/12 01:06:02;;;;;;;25.67;19.83;;;4.70;99.90;;;;;;5102658;28;20378;-72
2023/11/12 01:08:28;;;;;;;31.13;20.40;;;4.70;99.90;;;;;;5097224;28;20439;-71
2023/11/12 01:10:54;;;;;;;26.63;19.83;;;4.80;99.90;;;;;;5091781;28;20752;-72
2023/11/12 01:13:19;;;;;;;24.73;19.65;;;4.80;99.90;;;;;;5091656;28;20416;-71
2023/11/12 01:15:45;;;;;;;29.20;20.20;;;4.80;99.90;;;;;;5091834;28;20442;-73
2023/11/12 01:18:11;;;;;;;27.60;19.83;;;4.80;99.90;;;;;;5091465;28;20374;-72
2023/11/12 01:20:37;;;;;;;31.15;20.02;;;4.90;99.90;;;;;;5095363;28;20469;-71
2023/11/12 01:23:02;;;;;;;27.00;20.20;;;4.90;99.90;;;;;;5077431;28;20457;-71
2023/11/12 01:25:28;;;;;;;26.07;20.50;;;4.90;99.90;;;;;;5095417;28;20735;-72
2023/11/12 01:27:54;;;;;;;29.03;20.50;;;4.90;99.90;;;;;;5095415;28;20377;-72
2023/11/12 01:30:20;;;;;;;23.45;18.95;;;5.00;99.90;;;;;;5095063;28;20389;-72
2023/11/12 01:32:45;;;;;;;25.80;19.30;;;5.00;99.90;;;;;;5095351;28;20386;-72
2023/11/12 01:35:11;;;;;;;23.87;19.10;;;5.00;99.90;;;;;;5095213;28;20427;-73
2023/11/12 01:37:37;;;;;;;22.70;18.30;;;5.00;99.90;;;;;;5096207;28;20611;-72
2023/11/12 01:40:04;;;;;;;22.50;19.30;;;5.10;99.90;;;;;;5095843;28;20378;-72
2023/11/12 01:42:31;;;;;;;24.42;18.65;;;5.20;99.90;;;;;;5096039;28;20378;-72
2023/11/12 01:44:56;;;;;;;23.98;18.48;;;5.20;99.90;;;;;;5097210;28;20883;-72
2023/11/12 01:47:22;;;;;;;23.92;18.85;;;5.20;99.90;;;;;;5097464;28;20401;-72
2023/11/12 01:49:48;;;;;;;24.08;17.65;;;5.10;99.90;;;;;;5095732;28;20432;-72
2023/11/12 01:52:15;;;;;;;25.40;18.80;;;5.10;99.90;;;;;;5094836;28;20390;-72
2023/11/12 01:54:41;;;;;;;25.65;18.10;;;5.00;99.90;;;;;;5094188;28;20863;-72
2023/11/12 01:57:07;;;;;;;24.70;18.58;;;5.00;99.90;;;;;;5094512;28;20392;-72
2023/11/12 01:59:35;;;;;;;20.90;17.92;;;5.00;99.90;;;;;;5094649;28;20455;-72
2023/11/12 02:02:02;;;;;;;21.50;18.13;;;4.90;99.90;;;;;;5094359;28;20485;-72
2023/11/12 02:04:27;;;;;;;31.35;18.73;;;4.90;99.90;;;;;;5094143;28;20868;-72
2023/11/12 02:06:54;;;;;;;24.93;18.57;;;4.90;99.90;;;;;;5094072;28;20481;-72
2023/11/12 02:09:22;;;;;;;25.05;19.05;;;4.80;99.90;;;;;;5094113;28;20386;-73
2023/11/12 02:11:49;;;;;;;24.20;19.10;;;4.80;99.90;;;;;;5094112;28;20397;-72
2023/11/12 02:14:16;;;;;;;24.15;18.65;;;4.80;99.90;;;;;;5093838;28;20410;-72
2023/11/12 02:16:43;;;;;;;26.48;19.67;;;4.70;99.90;;;;;;5093873;28;20386;-72
2023/11/12 02:19:29;;;;;;;24.27;19.50;;;4.70;99.90;;;;;;5095804;28;20414;-72
2023/11/12 02:21:55;;;;;;;25.65;19.15;;;4.70;99.90;;;;;;5094589;28;20447;-72
2023/11/12 02:24:24;;;;;;;24.27;18.80;;;4.60;99.90;;;;;;5093660;28;20425;-70
2023/11/12 02:26:51;;;;;;;25.08;18.90;;;4.60;99.90;;;;;;5094186;28;20461;-74
2023/11/12 02:29:17;;;;;;;23.25;18.52;;;4.60;99.90;;;;;;5094282;28;20606;-72
2023/11/12 02:31:43;;;;;;;25.83;20.45;;;4.50;99.90;;;;;;5093017;28;20382;-73
2023/11/12 02:34:09;;;;;;;24.63;19.60;;;4.50;99.90;;;;;;5093645;28;20420;-71
2023/11/12 02:36:35;;;;;;;28.17;19.63;;;4.50;99.90;;;;;;5075070;28;20397;-71
2023/11/12 02:39:01;;;;;;;24.58;19.30;;;4.50;99.90;;;;;;5086842;28;20883;-70
2023/11/12 02:41:27;;;;;;;27.08;19.75;;;4.50;99.90;;;;;;5092838;28;20889;-71
2023/11/12 02:43:55;;;;;;;24.48;18.63;;;4.50;99.90;;;;;;5092791;28;20374;-71
2023/11/12 02:46:21;;;;;;;26.80;19.02;;;4.50;99.90;;;;;;5093350;28;20505;-70
2023/11/12 02:49:18;;;;;;;22.45;17.73;;;4.50;99.90;;;;;;5093865;28;20382;-71
2023/11/12 02:51:45;;;;;;;26.50;19.50;;;4.40;99.90;;;;;;5094459;28;20405;-71
2023/11/12 02:54:10;;;;;;;23.43;18.57;;;4.50;99.90;;;;;;5096106;28;20554;-72
2023/11/12 02:56:36;;;;;;;23.30;19.00;;;4.40;99.90;;;;;;5094212;28;20488;-72
2023/11/12 02:59:03;;;;;;;24.10;19.20;;;4.50;99.90;;;;;;5092965;28;20381;-71
2023/11/12 03:01:29;;;;;;;21.65;17.90;;;4.50;99.90;;;;;;5092940;28;20400;-71
2023/11/12 03:03:54;;;;;;;24.47;17.80;;;4.50;99.90;;;;;;5093515;28;20383;-72
2023/11/12 03:06:20;;;;;;;22.53;17.97;;;4.60;99.90;;;;;;5093432;28;20378;-71
2023/11/12 03:08:45;;;;;;;24.23;18.37;;;4.60;99.90;;;;;;5092823;28;20887;-72
2023/11/12 03:11:12;;;;;;;22.50;16.80;;;4.80;99.90;;;;;;5093495;28;20374;-72
2023/11/12 03:13:37;;;;;;;20.98;16.67;;;4.90;99.90;;;;;;5093714;28;20394;-71
2023/11/12 03:16:03;;;;;;;20.93;16.67;;;5.00;99.90;;;;;;5097914;28;20922;-72
2023/11/12 03:18:29;;;;;;;20.17;16.05;;;5.10;99.90;;;;;;5082577;28;20390;-72
2023/11/12 03:20:54;;;;;;;24.10;16.60;;;5.20;99.90;;;;;;5101357;28;20446;-72
2023/11/12 03:23:20;;;;;;;21.25;15.55;;;5.30;99.90;;;;;;5098097;28;20895;-72
2023/11/12 03:25:45;;;;;;;18.77;14.95;;;5.40;99.90;;;;;;5093142;28;20374;-71
2023/11/12 03:28:11;;;;;;;19.83;15.60;;;5.40;99.90;;;;;;5092272;28;20689;-70
2023/11/12 03:30:39;;;;;;;20.60;15.50;;;5.40;99.90;;;;;;5092451;28;20375;-70
2023/11/12 03:33:05;;;;;;;17.45;14.35;;;5.50;99.90;;;;;;5093103;28;20402;-72
2023/11/12 03:35:31;;;;;;;17.50;14.20;;;5.60;99.90;;;;;;5093348;28;20888;-71
2023/11/12 03:37:56;;;;;;;19.73;14.43;;;5.60;99.90;;;;;;5092285;28;20397;-71
2023/11/12 03:40:23;;;;;;;16.43;13.73;;;5.70;99.90;;;;;;5091954;28;20381;-71
2023/11/12 03:42:49;;;;;;;18.93;13.87;;;5.70;99.90;;;;;;5091056;28;20436;-70
2023/11/12 03:45:15;;;;;;;18.25;14.75;;;5.70;99.90;;;;;;5092237;28;20378;-70
2023/11/12 03:47:41;;;;;;;16.77;13.80;;;5.70;99.90;;;;;;5091869;28;20397;-70
2023/11/12 03:50:08;;;;;;;17.58;14.15;;;5.70;99.90;;;;;;5092985;28;20389;-71
2023/11/12 03:52:33;;;;;;;18.98;14.13;;;5.70;99.90;;;;;;5089050;23;20485;-70
2023/11/12 03:54:59;;;;;;;19.20;13.60;;;5.70;99.90;;;;;;5072148;28;20490;-71
2023/11/12 03:57:25;;;;;;;16.87;13.20;;;5.80;99.90;;;;;;5072000;28;20800;-71
2023/11/12 03:59:51;;;;;;;14.40;12.87;;;5.80;99.90;;;;;;5053616;28;20388;-73
2023/11/12 04:02:19;;;;;;;17.80;14.20;;;5.90;99.90;;;;;;5071794;28;20376;-71
2023/11/12 04:04:45;;;;;;;15.95;13.43;;;5.90;99.90;;;;;;5071790;28;20384;-71
2023/11/12 04:07:11;;;;;;;19.23;13.40;;;5.90;99.10;;;;;;5071981;28;20462;-71
2023/11/12 04:09:37;;;;;;;17.10;13.23;;;5.90;99.90;;;;;;5071453;28;20392;-74
2023/11/12 04:12:04;;;;;;;18.13;12.80;;;5.90;99.90;;;;;;5071601;28;20871;-74
2023/11/12 04:14:30;;;;;;;19.45;13.35;;;5.90;99.80;;;;;;5071199;28;20403;-72
2023/11/12 04:16:55;;;;;;;17.40;12.90;;;5.90;98.70;;;;;;5071357;28;20456;-72
2023/11/12 04:19:21;;;;;;;16.33;12.20;;;6.00;94.70;;;;;;5071379;28;20380;-72
2023/11/12 04:21:47;;;;;;;16.30;12.95;;;6.00;97.20;;;;;;5071035;28;20391;-72
2023/11/12 04:24:13;;;;;;;13.90;12.32;;;6.00;96.90;;;;;;5070133;28;21000;-72
2023/11/12 04:26:38;;;;;;;16.57;12.97;;;6.00;95.60;;;;;;5071475;28;20383;-72
2023/11/12 04:29:06;;;;;;;16.23;12.37;;;6.10;95.20;;;;;;5071220;28;20403;-73
2023/11/12 04:31:36;;;;;;;18.88;12.85;;;6.10;95.80;;;;;;5069806;28;20488;-71
2023/11/12 04:34:01;;;;;;;19.65;12.50;;;6.00;95.40;;;;;;5070904;28;20545;-72
2023/11/12 04:36:28;;;;;;;17.27;12.35;;;6.00;95.40;;;;;;5071310;28;20471;-73
2023/11/12 04:38:55;;;;;;;17.88;12.50;;;6.10;95.10;;;;;;5069744;28;20384;-73
2023/11/12 04:41:20;;;;;;;16.20;12.02;;;6.10;94.60;;;;;;5069855;28;20391;-71
2023/11/12 04:43:46;;;;;;;15.85;12.57;;;6.10;93.10;;;;;;5071000;28;20383;-71
2023/11/12 04:46:12;;;;;;;14.30;11.57;;;6.10;91.80;;;;;;5071033;28;20380;-72
2023/11/12 04:48:38;;;;;;;17.08;12.40;;;6.10;93.20;;;;;;5070877;28;20384;-72
2023/11/12 04:51:06;;;;;;;15.17;11.93;;;6.10;92.90;;;;;;5072708;28;20392;-72
2023/11/12 04:53:31;;;;;;;14.80;11.98;;;6.10;93.70;;;;;;5092756;28;20393;-75
2023/11/12 04:55:57;;;;;;;15.40;12.20;;;6.10;93.30;;;;;;5093797;28;20378;-71
2023/11/12 04:58:23;;;;;;;17.55;12.82;;;6.10;93.40;;;;;;5076230;28;20382;-71
2023/11/12 05:00:49;;;;;;;16.60;12.30;;;6.10;93.90;;;;;;5093781;28;20410;-71
2023/11/12 05:03:16;;;;;;;14.15;12.30;;;6.00;94.40;;;;;;5091779;28;20848;-71
2023/11/12 05:05:41;;;;;;;16.95;12.90;;;6.10;93.10;;;;;;5090708;28;20806;-73
2023/11/12 05:08:07;;;;;;;15.30;12.60;;;6.10;93.80;;;;;;5090618;28;20389;-70
2023/11/12 05:10:32;;;;;;;17.03;12.20;;;6.10;94.70;;;;;;5090909;28;20385;-71
2023/11/12 05:12:58;;;;;;;15.90;12.23;;;6.00;94.60;;;;;;5090770;28;20385;-71
2023/11/12 05:15:23;;;;;;;20.17;12.70;;;6.10;94.50;;;;;;5090944;28;20760;-71
2023/11/12 05:17:49;;;;;;;13.30;11.90;;;6.10;94.30;;;;;;5090563;28;20802;-71
2023/11/12 05:20:15;;;;;;;14.57;11.98;;;6.00;93.90;;;;;;5072890;28;20377;-71
2023/11/12 05:22:40;;;;;;;17.45;12.32;;;6.00;94.50;;;;;;5072476;28;20375;-71
2023/11/12 05:25:06;;;;;;;16.17;11.80;;;6.10;93.90;;;;;;5090539;28;20382;-72
2023/11/12 05:27:32;;;;;;;19.63;12.48;;;6.10;93.10;;;;;;5090576;28;20378;-72
2023/11/12 05:29:57;;;;;;;17.50;12.40;;;6.00;92.40;;;;;;5090745;28;20385;-72
2023/11/12 05:32:23;;;;;;;14.60;12.03;;;6.00;93.20;;;;;;5090961;28;20737;-73
2023/11/12 05:34:49;;;;;;;14.70;12.10;;;6.00;93.00;;;;;;5091757;28;20775;-72
2023/11/12 05:37:16;;;;;;;15.00;12.50;;;5.90;93.90;;;;;;5090915;28;20384;-71
2023/11/12 05:39:41;;;;;;;19.27;12.45;;;5.90;93.40;;;;;;5090505;28;20799;-71
2023/11/12 05:42:07;;;;;;;14.35;11.88;;;5.90;93.90;;;;;;5090730;28;20464;-71
2023/11/12 05:44:33;;;;;;;15.40;11.83;;;5.80;94.50;;;;;;5090953;28;20434;-71
2023/11/12 05:46:59;;;;;;;15.03;12.43;;;5.90;93.80;;;;;;5072491;28;20394;-71
2023/11/12 05:49:24;;;;;;;16.88;12.18;;;5.80;95.00;;;;;;5090521;28;20382;-72
2023/11/12 05:51:50;;;;;;;16.05;12.55;;;5.70;94.40;;;;;;5072327;28;20385;-74
2023/11/12 05:54:16;;;;;;;17.73;13.73;;;5.70;94.80;;;;;;5090725;28;20462;-71
2023/11/12 05:56:42;;;;;;;18.92;13.82;;;5.60;95.30;;;;;;5090769;28;20382;-70
2023/11/12 05:59:08;;;;;;;16.50;12.90;;;5.60;95.20;;;;;;5091099;28;20381;-72
2023/11/12 06:01:33;;;;;;;17.95;12.77;;;5.60;95.80;;;;;;5092621;28;20382;-73
2023/11/12 06:04:00;;;;;;;16.63;13.30;;;5.50;96.60;;;;;;5091536;28;20456;-71
2023/11/12 06:06:26;;;;;;;20.00;13.77;;;5.40;98.20;;;;;;5091979;28;20465;-72
2023/11/12 06:08:51;;;;;;;19.25;14.10;;;5.30;98.60;;;;;;5094665;28;20467;-73
2023/11/12 06:11:17;;;;;;;17.60;13.40;;;5.40;99.00;;;;;;5094709;28;20740;-72
2023/11/12 06:13:42;;;;;;;19.20;14.10;;;5.40;98.80;;;;;;5094362;28;20428;-75
2023/11/12 06:16:08;;;;;;;18.47;14.20;;;5.30;99.60;;;;;;5094244;28;20390;-72
2023/11/12 06:18:34;;;;;;;17.37;13.57;;;5.30;99.90;;;;;;5094299;28;20378;-72
2023/11/12 06:21:02;;;;;;;17.73;13.57;;;5.30;99.90;;;;;;5094275;28;20386;-74
2023/11/12 06:23:28;;;;;;;17.43;14.07;;;5.30;99.90;;;;;;5095186;28;20386;-73
2023/11/12 06:25:53;;;;;;;16.23;13.57;;;5.30;99.90;;;;;;5094786;28;20381;-72
2023/11/12 06:28:20;;;;;;;16.60;13.20;;;5.30;99.90;;;;;;5094547;28;20853;-73
2023/11/12 06:30:45;;;;;;;17.33;13.82;;;5.30;99.90;;;;;;5095102;28;20382;-73
2023/11/12 06:33:11;;;;;;;17.73;13.65;;;5.20;99.90;;;;;;5094643;28;20385;-72
2023/11/12 06:35:37;;;;;;;16.40;13.35;;;5.20;99.90;;;;;;5096149;28;20429;-74
2023/11/12 06:38:02;;;;;;;16.92;13.35;;;5.30;99.90;;;;;;5098020;28;20378;-72
2023/11/12 06:40:28;;;;;;;16.27;12.13;;;5.30;99.90;;;;;;5097378;28;20457;-73
2023/11/12 06:42:53;;;;;;;16.30;12.53;;;5.20;99.90;;;;;;5095428;28;20737;-72
2023/11/12 06:45:19;;;;;;;16.30;12.70;;;5.30;99.90;;;;;;5093753;28;20392;-71
2023/11/12 06:47:45;;;;;;;15.57;11.37;;;5.30;99.90;;;;;;5093327;28;20385;-71
2023/11/12 06:50:11;;;;;;;15.48;11.40;;;5.20;99.90;;;;;;5075329;28;20423;-72
2023/11/12 06:52:36;;;;;;;15.48;11.30;;;5.20;99.90;;;;;;5075500;28;20476;-70
2023/11/12 06:55:04;;;;;;;14.30;10.90;;;5.20;99.90;;;;;;5075335;28;20398;-71
2023/11/12 06:57:30;;;;;;;11.80;10.32;;;5.20;99.90;;;;;;5093377;28;20756;-73
2023/11/12 06:59:56;;;;;;;11.95;10.30;;;5.20;99.90;;;;;;5096553;28;20386;-74
2023/11/12 07:02:21;;;;;;;11.95;10.35;;;5.10;99.90;;;;;;5094834;28;20801;-71
2023/11/12 07:04:49;;;;;;;13.52;10.00;;;5.10;99.90;;;;;;5092975;28;20461;-71
2023/11/12 07:07:15;;;;;;;15.30;10.57;;;5.10;99.90;;;;;;5093036;28;20473;-72
2023/11/12 07:09:41;;;;;;;13.82;10.80;;;5.00;99.90;;;;;;5092730;28;20458;-72
2023/11/12 07:12:07;;;;;;;12.48;9.90;;;5.10;99.90;;;;;;5092640;28;20386;-72
2023/11/12 07:14:33;;;;;;;13.43;10.20;;;5.20;98.90;;;;;;5092973;28;20398;-71
2023/11/12 07:16:58;;;;;;;15.32;10.30;;;5.10;99.10;;;;;;5092289;28;20374;-72
2023/11/12 07:19:24;;;;;;;14.95;11.13;;;5.10;99.40;;;;;;5092412;28;20401;-72
2023/11/12 07:21:50;;;;;;;13.52;10.80;;;5.10;99.90;;;;;;5092420;28;20374;-73
2023/11/12 07:24:17;;;;;;;13.02;9.77;;;5.10;99.90;;;;;;5092446;28;20374;-73
2023/11/12 07:26:44;;;;;;;12.40;10.30;;;5.10;99.20;;;;;;5092455;28;20413;-72
2023/11/12 07:29:13;;;;;;;14.48;10.32;;;5.20;99.60;;;;;;5092695;28;20435;-73
2023/11/12 07:31:39;;;;;;;11.68;9.27;;;5.20;99.10;;;;;;5092823;28;20386;-72
2023/11/12 07:34:06;;;;;;;14.60;10.00;;;5.20;98.90;;;;;;5074381;28;20402;-71
2023/11/12 07:36:32;;;;;;;13.50;9.40;;;5.20;98.80;;;;;;5092264;28;20895;-72
2023/11/12 07:38:57;;;;;;;10.85;9.45;;;5.20;98.80;;;;;;5092560;28;20477;-73
2023/11/12 07:41:23;;;;;;;11.93;9.20;;;5.30;97.50;;;;;;5092397;28;20392;-70
2023/11/12 07:43:49;;;;;;;9.93;8.93;;;5.30;97.90;;;;;;5091995;28;20481;-70
2023/11/12 07:46:15;;;;;;;12.63;8.80;;;5.30;98.10;;;;;;5091974;28;20496;-72
2023/11/12 07:48:42;;;;;;;12.32;9.00;;;5.40;97.50;;;;;;5091938;28;20414;-72
2023/11/12 07:51:08;;;;;;;11.60;9.00;;;5.40;95.30;;;;;;5091499;28;20413;-71
2023/11/12 07:53:50;;;;;;;12.00;9.20;;;5.40;95.10;;;;;;5087867;27;20355;-74
2023/11/12 07:56:16;;;;;;;10.10;8.73;;;5.50;93.00;;;;;;5088076;28;20410;-72
2023/11/12 07:58:42;;;;;;;10.32;8.80;;;5.60;93.40;;;;;;5087533;28;20406;-72
2023/11/12 08:01:11;;;;;;;14.70;9.50;;;5.70;93.10;;;;;;5087881;28;20377;-71
2023/11/12 08:03:36;;;;;;;10.27;8.55;;;5.70;91.30;;;;;;5087899;28;20633;-71
2023/11/12 08:06:03;;;;;;;10.18;9.10;;;5.70;90.10;;;;;;5087883;28;20478;-72
2023/11/12 08:08:32;;;;;;;10.75;8.00;;;5.80;90.60;;;;;;5087555;28;20459;-74
2023/11/12 08:10:59;;;;;;;10.73;8.10;;;5.90;87.00;;;;;;5087415;28;20410;-71
2023/11/12 08:13:25;;;;;;;11.90;8.27;;;6.00;86.10;;;;;;5087738;28;20402;-72
2023/11/12 08:15:51;;;;;;;12.07;7.63;;;6.10;83.60;;;;;;5087521;28;20376;-71
2023/11/12 08:18:17;;;;;;;9.93;7.70;;;6.10;81.20;;;;;;5087542;28;20880;-71
2023/11/12 08:20:42;;;;;;;12.17;8.07;;;6.20;81.50;;;;;;5086249;28;20411;-72
2023/11/12 08:23:08;;;;;;;10.60;8.37;;;6.30;80.70;;;;;;5087584;28;20383;-73
2023/11/12 08:25:34;;;;;;;8.48;7.25;;;6.50;80.20;;;;;;5087444;28;20387;-71
2023/11/12 08:27:59;;;;;;;8.73;6.55;;;6.70;78.40;;;;;;5087162;28;21037;-71
2023/11/12 08:30:25;;;;;;;7.93;6.90;;;7.00;69.10;;;;;;5087250;28;20415;-73
2023/11/12 08:32:51;;;;;;;9.93;7.03;;;7.00;67.00;;;;;;5087029;28;20399;-71
2023/11/12 08:35:16;;;;;;;8.88;7.18;;;7.00;66.00;;;;;;5087137;28;20404;-71
2023/11/12 08:37:42;;;;;;;10.13;7.32;;;7.00;66.50;;;;;;5087136;28;20860;-73
2023/11/12 08:40:09;;;;;;;8.55;7.15;;;7.00;66.50;;;;;;5087212;28;20379;-72
2023/11/12 08:42:34;;;;;;;12.23;7.50;;;7.00;67.40;;;;;;5086880;28;20466;-75
2023/11/12 08:45:01;;;;;;;9.90;7.13;;;7.00;66.80;;;;;;5087135;28;20513;-71
2023/11/12 08:47:26;;;;;;;9.70;7.13;;;7.00;67.20;;;;;;5085478;28;20390;-72
2023/11/12 08:49:52;;;;;;;8.18;6.78;;;7.10;64.90;;;;;;5087106;28;20379;-71
2023/11/12 08:52:17;;;;;;;9.95;7.10;;;7.10;66.00;;;;;;5086693;28;20403;-72
2023/11/12 08:54:43;;;;;;;11.02;7.70;;;7.10;66.50;;;;;;5086740;28;20463;-71
2023/11/12 08:57:12;;;;;;;10.97;7.13;;;7.20;66.90;;;;;;5087845;28;20741;-71
2023/11/12 08:59:37;;;;;;;8.80;7.13;;;7.70;62.90;;;;;;5087310;28;20411;-72
2023/11/12 09:02:06;;;;;;;10.10;6.70;;;8.30;59.50;;;;;;5088257;28;20757;-72
2023/11/12 09:04:32;;;;;;;9.40;6.40;;;8.80;54.80;;;;;;5079640;28;20446;-71
2023/11/12 09:06:57;;;;;;;9.05;5.80;;;9.50;48.00;;;;;;5075531;28;20400;-72
2023/11/12 09:09:23;;;;;;;10.57;6.73;;;9.50;46.90;;;;;;5075944;28;20410;-72
2023/11/12 09:11:48;;;;;;;10.10;7.10;;;9.10;48.00;;;;;;5074884;28;20866;-73
2023/11/12 09:14:15;;;;;;;11.30;6.53;;;8.80;50.20;;;;;;5073804;28;20746;-72
2023/11/12 09:16:42;;;;;;;7.95;6.40;;;8.60;51.50;;;;;;5072831;28;20383;-72
2023/11/12 09:19:09;;;;;;;9.85;6.28;;;8.40;52.30;;;;;;5072806;28;20384;-71
2023/11/12 09:21:34;;;;;;;10.60;6.35;;;8.30;53.80;;;;;;5072919;28;20380;-71
2023/11/12 09:24:00;;;;;;;10.93;6.47;;;8.30;55.20;;;;;;5072822;28;20391;-72
2023/11/12 09:26:26;;;;;;;10.50;7.30;;;8.40;54.30;;;;;;5072735;28;20368;-73
2023/11/12 09:28:52;;;;;;;9.53;6.70;;;8.70;52.70;;;;;;5072491;28;20388;-71
2023/11/12 09:31:19;;;;;;;12.30;6.60;;;8.70;52.50;;;;;;5072506;28;20937;-72
2023/11/12 09:33:46;;;;;;;10.90;6.80;;;8.50;52.90;;;;;;5073329;28;20400;-72
2023/11/12 09:36:12;;;;;;;9.10;6.47;;;8.40;53.30;;;;;;5072772;28;20462;-71
2023/11/12 09:38:39;;;;;;;11.98;6.60;;;8.30;54.20;;;;;;5072386;28;20475;-73
2023/11/12 09:41:06;;;;;;;8.30;6.30;;;8.40;54.80;;;;;;5067735;28;20406;-72
2023/11/12 09:43:32;;;;;;;10.35;6.50;;;8.40;54.70;;;;;;5063733;28;20401;-71
2023/11/12 09:46:16;;;;;;;9.85;6.75;;;8.40;53.30;;;;;;5062524;28;20501;-74
2023/11/12 09:48:42;;;;;;;10.20;6.50;;;7.90;52.70;;;;;;5074784;28;20870;-72
2023/11/12 09:51:22;;;;;;;12.43;7.00;;;8.50;53.40;;;;;;5071016;28;20386;-75
2023/11/12 09:53:57;;;;;;;9.80;6.37;;;8.60;52.20;;;;;;5065459;28;20409;-74
2023/11/12 09:56:26;;;;;;;11.50;6.20;;;8.60;53.30;;;;;;5061330;28;20517;-74
2023/11/12 09:58:58;;;;;;;13.77;8.35;;;8.60;54.00;;;;;;5065741;28;20802;-74
2023/11/12 10:01:31;;;;;;;10.90;6.77;;;8.70;56.20;;;;;;5064101;28;20475;-74
2023/11/12 10:03:57;;;;;;;8.65;6.85;;;8.70;55.90;;;;;;5059590;28;20469;-74
2023/11/12 10:06:23;;;;;;;8.73;6.50;;;8.80;54.50;;;;;;5061168;28;20410;-75
2023/11/12 10:09:00;;;;;;;8.27;6.10;;;8.80;56.00;;;;;;5060218;28;20369;-72
2023/11/12 10:11:46;;;;;;;10.60;6.00;;;8.70;55.10;;;;;;5053151;28;20737;-74
2023/11/12 10:14:15;;;;;;;9.38;6.50;;;8.70;53.90;;;;;;5058896;28;20411;-73
2023/11/12 10:16:41;;;;;;;9.73;6.35;;;8.70;52.80;;;;;;5071323;28;20446;-75
2023/11/12 10:19:20;;;;;;;14.80;7.60;;;8.70;51.90;;;;;;5059122;28;20397;-75
2023/11/12 10:21:55;;;;;;;9.07;6.63;;;8.60;52.70;;;;;;5052113;28;20378;-74
2023/11/12 10:24:49;;;;;;;14.75;7.30;;;8.40;53.60;;;;;;5050921;28;20464;-76
2023/11/12 10:27:56;;;;;;;11.50;6.97;;;8.60;53.30;;;;;;5050995;28;20760;-75
2023/11/12 10:30:23;;;;;;;13.67;6.63;;;8.80;54.30;;;;;;5063773;28;20484;-76
2023/11/12 10:32:51;;;;;;;14.40;6.45;;;8.90;51.90;;;;;;5051629;28;20405;-76
2023/11/12 10:35:30;;;;;;;11.35;6.40;;;9.00;51.50;;;;;;5059218;28;20388;-74
2023/11/12 10:37:59;;;;;;;9.43;5.60;;;9.10;51.10;;;;;;5060666;28;20484;-75
2023/11/12 10:40:25;;;;;;;10.65;6.43;;;9.30;49.50;;;;;;5071484;28;20661;-74
2023/11/12 10:42:58;;;;;;;8.43;5.77;;;9.40;48.80;;;;;;5059982;28;20474;-76
2023/11/12 10:45:31;;;;;;;11.40;5.80;;;9.50;48.10;;;;;;5052043;28;20390;-78
2023/11/12 10:48:04;;;;;;;9.02;5.47;;;9.60;46.80;;;;;;5066021;28;20399;-76
2023/11/12 10:50:30;;;;;;;7.82;5.50;;;9.60;46.90;;;;;;5062297;28;20934;-77
2023/11/12 10:52:58;;;;;;;12.02;5.82;;;9.60;46.50;;;;;;5051619;28;20424;-74
2023/11/12 10:55:29;;;;;;;12.02;5.65;;;9.60;44.60;;;;;;5050104;28;20385;-75
2023/11/12 10:58:05;;;;;;;10.80;5.75;;;9.70;45.40;;;;;;5051706;28;20408;-75
2023/11/12 11:00:31;;;;;;;14.35;5.65;;;9.70;45.10;;;;;;5051193;28;20406;-74
2023/11/12 11:02:58;;;;;;;10.05;6.13;;;9.60;45.40;;;;;;5051580;28;20463;-74
2023/11/12 11:05:24;;;;;;;8.45;5.65;;;9.60;45.20;;;;;;5067031;28;20395;-73
2023/11/12 11:07:59;;;;;;;10.32;5.47;;;9.60;44.60;;;;;;5055059;28;20396;-77
2023/11/12 11:10:25;;;;;;;10.73;6.53;;;9.70;45.10;;;;;;5052721;28;20416;-77
2023/11/12 11:12:51;;;;;;;13.48;6.00;;;9.70;45.30;;;;;;5052260;28;20542;-74
2023/11/12 11:15:38;;;;;;;9.10;5.25;;;9.80;44.00;;;;;;5067913;28;20944;-72
2023/11/12 11:18:04;;;;;;;10.57;5.97;;;9.90;43.90;;;;;;5051432;28;20488;-74
2023/11/12 11:21:13;;;;;;;9.55;6.10;;;9.90;44.10;;;;;;5061787;28;20572;-72
2023/11/12 11:23:41;;;;;;;12.88;6.70;;;10.10;43.00;;;;;;5067610;28;20410;-72
2023/11/12 11:26:27;;;;;;;13.60;6.10;;;10.10;41.70;;;;;;5057962;28;20416;-72
2023/11/12 11:29:05;;;;;;;15.18;6.80;;;10.00;42.70;;;;;;5054430;28;20479;-72
2023/11/12 11:31:31;;;;;;;10.98;6.75;;;9.90;42.10;;;;;;5070067;28;20382;-72
2023/11/12 11:33:58;;;;;;;14.57;7.30;;;9.80;41.90;;;;;;5070459;28;20747;-74
2023/11/12 11:36:25;;;;;;;11.88;6.63;;;9.80;42.40;;;;;;5070340;28;20376;-71
2023/11/12 11:39:06;;;;;;;13.50;6.70;;;9.70;42.60;;;;;;5069367;28;20873;-74
2023/11/12 11:41:35;;;;;;;11.65;6.38;;;9.80;43.30;;;;;;5070596;28;20878;-73
2023/11/12 11:47:14;;;;;;;12.27;6.13;;;9.80;43.10;;;;;;5070064;28;20784;-72
2023/11/12 11:49:41;;;;;;;10.68;6.55;;;9.80;43.00;;;;;;5069976;28;20942;-72
2023/11/12 11:52:07;;;;;;;16.35;6.80;;;9.80;43.60;;;;;;5070272;28;20743;-73
2023/11/12 11:54:34;;;;;;;13.38;6.45;;;9.80;43.70;;;;;;5070426;28;20399;-74
2023/11/12 11:57:06;;;;;;;10.48;6.80;;;9.90;43.70;;;;;;5068737;28;20425;-72
2023/11/12 11:59:36;;;;;;;14.30;6.70;;;10.00;43.60;;;;;;5069088;28;20380;-73
2023/11/12 12:02:02;;;;;;;15.18;6.50;;;10.20;42.60;;;;;;5070055;28;20411;-73
2023/11/12 12:04:28;;;;;;;13.73;6.32;;;10.30;41.50;;;;;;5068732;28;20402;-73
2023/11/12 12:06:55;;;;;;;11.73;6.35;;;10.50;40.40;;;;;;5070050;28;20388;-73
2023/11/12 12:09:21;;;;;;;11.25;6.30;;;10.50;40.30;;;;;;5070154;28;20394;-73
2023/11/12 12:11:51;;;;;;;14.40;7.53;;;10.40;40.10;;;;;;5069725;28;20909;-74
2023/11/12 12:14:17;;;;;;;19.02;7.00;;;10.40;40.00;;;;;;5070219;28;20463;-73
2023/11/12 12:16:43;;;;;;;13.00;7.07;;;10.40;39.60;;;;;;5068617;28;20387;-73
2023/11/12 12:19:23;;;;;;;15.00;7.22;;;10.50;39.00;;;;;;5068669;28;20437;-73
2023/11/12 12:21:51;;;;;;;23.88;8.80;;;10.50;39.50;;;;;;5069787;28;20862;-73
2023/11/12 12:24:19;;;;;;;19.53;7.90;;;10.50;39.90;;;;;;5070152;28;20415;-73
2023/11/12 12:26:44;;;;;;;13.38;7.15;;;10.60;39.60;;;;;;5069757;28;20398;-74
2023/11/12 12:29:19;;;;;;;11.25;6.45;;;10.50;39.70;;;;;;5069782;28;20475;-73
2023/11/12 12:31:46;;;;;;;10.75;6.35;;;10.60;39.70;;;;;;5069725;28;20391;-73
2023/11/12 12:34:15;;;;;;;13.70;7.03;;;10.50;39.30;;;;;;5069783;28;20376;-73
2023/11/12 12:36:51;;;;;;;11.70;6.30;;;10.50;39.70;;;;;;5069495;28;20455;-73
2023/11/12 12:39:18;;;;;;;14.95;7.50;;;10.50;39.70;;;;;;5071105;28;20411;-73
2023/11/12 12:41:44;;;;;;;15.18;6.75;;;10.60;40.00;;;;;;5072827;28;20390;-72
2023/11/12 12:44:22;;;;;;;37.80;9.20;;;10.60;39.90;;;;;;5072965;28;20380;-73